Главная страница
METAR-TAF:

METAR-TAF

Аэропорты :

Трольхеттан-Венерсборг, Швеция

широта: 58-19N, долгота: 012-21E, высота над уровнем моря: 41 м

Текущие метеонаблюдения

Эта сводка был подготовлена 37 минут назад, в 04:50 UTC
Ветер 14 Узел от западный-юго-западный с порывами до 25 Узел
Температура 14°C
Влажность 88%
Давление 1003 hPa
Видимость 10 км и более
небольшой дождь

METAR: ESGT 150450Z AUTO 24014G25KT 9999 -RA OVC012/// 14/12 Q1003

Время: 07:27 (05:27 UTC)


TAF: отсутствует

Метеонаблюдения и прогнозы для более 4000 аэропортов (сводки METAR и TAF).

Имеющиеся станции представлены на карте желтыми и красными точками.

Чтобы увидеть название станции, наведите на нее мышь.

Затем щелкните, чтобы увидеть метеонаблюдения и метеопрогнозы.

Управление картой: чтобы увеличить масштаб, щелкните зеленые кнопки с черным крестиком; чтобы уменьшить масштаб, щелкните зеленую кнопку с тире; для просмотра соседних карт щелкайте зеленые стрелки.


METAR-TAF: